sensor_id;sensor_type;location;lat;lon;timestamp;pressure;altitude;pressure_sealevel;temperature;humidity
8049;BME280;20935;42.660;23.342;2023-03-08T00:02:40;93936.31;;;7.99;69.74
8049;BME280;20935;42.660;23.342;2023-03-08T00:05:25;93927.72;;;7.81;70.68
8049;BME280;20935;42.660;23.342;2023-03-08T00:08:12;93936.69;;;7.57;72.81
8049;BME280;20935;42.660;23.342;2023-03-08T00:10:58;93940.25;;;7.84;71.93
8049;BME280;20935;42.660;23.342;2023-03-08T00:13:44;93931.22;;;7.75;71.61
8049;BME280;20935;42.660;23.342;2023-03-08T00:16:29;93945.66;;;7.77;72.25
8049;BME280;20935;42.660;23.342;2023-03-08T00:19:15;93942.38;;;7.59;73.39
8049;BME280;20935;42.660;23.342;2023-03-08T00:22:00;93946.75;;;7.35;75.05
8049;BME280;20935;42.660;23.342;2023-03-08T00:24:47;93938.41;;;7.30;76.39
8049;BME280;20935;42.660;23.342;2023-03-08T00:27:33;93937.28;;;7.31;76.70
8049;BME280;20935;42.660;23.342;2023-03-08T00:30:18;93935.72;;;7.33;76.77
8049;BME280;20935;42.660;23.342;2023-03-08T00:33:04;93933.06;;;7.33;77.33
8049;BME280;20935;42.660;23.342;2023-03-08T00:35:57;93945.53;;;7.47;76.43
8049;BME280;20935;42.660;23.342;2023-03-08T00:38:43;93938.25;;;7.51;76.59
8049;BME280;20935;42.660;23.342;2023-03-08T00:41:31;93928.19;;;7.69;74.91
8049;BME280;20935;42.660;23.342;2023-03-08T00:44:16;93936.34;;;7.92;74.04
8049;BME280;20935;42.660;23.342;2023-03-08T00:47:01;93928.00;;;7.90;73.77
8049;BME280;20935;42.660;23.342;2023-03-08T00:49:47;93926.22;;;7.77;75.08
8049;BME280;20935;42.660;23.342;2023-03-08T00:52:32;93925.00;;;7.85;74.75
8049;BME280;20935;42.660;23.342;2023-03-08T00:55:18;93932.34;;;7.74;75.04
8049;BME280;20935;42.660;23.342;2023-03-08T00:58:05;93936.72;;;7.53;76.12
8049;BME280;20935;42.660;23.342;2023-03-08T01:00:50;93927.69;;;7.40;77.43
8049;BME280;20935;42.660;23.342;2023-03-08T01:03:35;93927.63;;;7.47;77.54
8049;BME280;20935;42.660;23.342;2023-03-08T01:06:21;93934.94;;;7.40;78.61
8049;BME280;20935;42.660;23.342;2023-03-08T01:09:07;93942.84;;;7.50;78.11
8049;BME280;20935;42.660;23.342;2023-03-08T01:11:53;93936.38;;;7.48;77.59
8049;BME280;20935;42.660;23.342;2023-03-08T01:14:40;93933.69;;;7.51;78.23
8049;BME280;20935;42.660;23.342;2023-03-08T01:17:25;93934.44;;;7.55;77.71
8049;BME280;20935;42.660;23.342;2023-03-08T01:20:11;93938.53;;;7.16;81.02
8049;BME280;20935;42.660;23.342;2023-03-08T01:22:57;93938.34;;;7.37;79.03
8049;BME280;20935;42.660;23.342;2023-03-08T01:25:42;93934.16;;;6.84;83.49
8049;BME280;20935;42.660;23.342;2023-03-08T01:28:28;93931.94;;;6.72;85.26
8049;BME280;20935;42.660;23.342;2023-03-08T01:31:17;93934.63;;;6.65;86.89
8049;BME280;20935;42.660;23.342;2023-03-08T01:34:02;93933.25;;;6.36;91.03
8049;BME280;20935;42.660;23.342;2023-03-08T01:36:47;93946.41;;;6.68;89.63
8049;BME280;20935;42.660;23.342;2023-03-08T01:39:33;93955.88;;;6.76;87.58
8049;BME280;20935;42.660;23.342;2023-03-08T01:42:18;93953.25;;;6.61;88.37
8049;BME280;20935;42.660;23.342;2023-03-08T01:45:05;93948.00;;;6.51;88.85
8049;BME280;20935;42.660;23.342;2023-03-08T01:48:13;93933.25;;;6.36;90.78
8049;BME280;20935;42.660;23.342;2023-03-08T01:51:00;93935.09;;;6.42;91.44
8049;BME280;20935;42.660;23.342;2023-03-08T01:53:46;93931.97;;;6.69;88.83
8049;BME280;20935;42.660;23.342;2023-03-08T01:56:32;93927.97;;;6.29;92.11
8049;BME280;20935;42.660;23.342;2023-03-08T01:59:23;93949.97;;;6.26;92.03
8049;BME280;20935;42.660;23.342;2023-03-08T02:02:09;93941.34;;;5.58;98.87
8049;BME280;20935;42.660;23.342;2023-03-08T02:04:56;93947.00;;;6.06;95.93
8049;BME280;20935;42.660;23.342;2023-03-08T02:07:41;93953.38;;;6.26;94.30
8049;BME280;20935;42.660;23.342;2023-03-08T02:10:27;93926.50;;;6.03;96.08
8049;BME280;20935;42.660;23.342;2023-03-08T02:13:12;93945.81;;;6.18;95.36
8049;BME280;20935;42.660;23.342;2023-03-08T02:15:59;93943.88;;;6.32;94.08
8049;BME280;20935;42.660;23.342;2023-03-08T02:18:51;93925.38;;;6.04;97.23
8049;BME280;20935;42.660;23.342;2023-03-08T02:21:38;93932.09;;;6.37;95.11
8049;BME280;20935;42.660;23.342;2023-03-08T02:24:25;93943.88;;;6.36;93.53
8049;BME280;20935;42.660;23.342;2023-03-08T02:27:14;93960.28;;;6.17;94.75
8049;BME280;20935;42.660;23.342;2023-03-08T02:30:01;93939.03;;;6.02;96.67
8049;BME280;20935;42.660;23.342;2023-03-08T02:32:47;93942.81;;;6.16;95.57
8049;BME280;20935;42.660;23.342;2023-03-08T02:35:32;93937.03;;;6.35;95.99
8049;BME280;20935;42.660;23.342;2023-03-08T02:38:19;93947.00;;;5.99;99.61
8049;BME280;20935;42.660;23.342;2023-03-08T02:41:06;93953.72;;;6.42;95.97
8049;BME280;20935;42.660;23.342;2023-03-08T02:43:54;93948.91;;;6.02;97.30
8049;BME280;20935;42.660;23.342;2023-03-08T02:46:39;93981.94;;;5.97;97.76
8049;BME280;20935;42.660;23.342;2023-03-08T02:49:25;93950.06;;;5.55;100.00
8049;BME280;20935;42.660;23.342;2023-03-08T02:52:10;93961.06;;;5.71;100.00
8049;BME280;20935;42.660;23.342;2023-03-08T02:54:56;93967.13;;;5.89;100.00
8049;BME280;20935;42.660;23.342;2023-03-08T02:57:43;93965.22;;;5.83;100.00
8049;BME280;20935;42.660;23.342;2023-03-08T03:00:28;93969.03;;;5.78;100.00
8049;BME280;20935;42.660;23.342;2023-03-08T03:03:14;93966.38;;;5.64;100.00
8049;BME280;20935;42.660;23.342;2023-03-08T03:06:00;93970.19;;;5.88;100.00
8049;BME280;20935;42.660;23.342;2023-03-08T03:08:46;93984.59;;;5.97;99.72
8049;BME280;20935;42.660;23.342;2023-03-08T03:11:31;93955.00;;;5.85;100.00
8049;BME280;20935;42.660;23.342;2023-03-08T03:14:18;93995.63;;;5.92;100.00
8049;BME280;20935;42.660;23.342;2023-03-08T03:17:03;93972.44;;;5.82;100.00
8049;BME280;20935;42.660;23.342;2023-03-08T03:19:49;93970.91;;;5.78;100.00
8049;BME280;20935;42.660;23.342;2023-03-08T03:22:34;93996.72;;;5.70;100.00
8049;BME280;20935;42.660;23.342;2023-03-08T03:25:19;93961.81;;;5.54;100.00
8049;BME280;20935;42.660;23.342;2023-03-08T03:28:05;93977.38;;;5.94;100.00
8049;BME280;20935;42.660;23.342;2023-03-08T03:30:51;93986.91;;;5.88;100.00
8049;BME280;20935;42.660;23.342;2023-03-08T03:33:37;93975.47;;;5.84;100.00
8049;BME280;20935;42.660;23.342;2023-03-08T03:36:23;93993.72;;;5.96;100.00
8049;BME280;20935;42.660;23.342;2023-03-08T03:39:09;94004.31;;;5.82;100.00
8049;BME280;20935;42.660;23.342;2023-03-08T03:41:54;93986.88;;;5.67;100.00
8049;BME280;20935;42.660;23.342;2023-03-08T03:44:39;94005.84;;;5.97;100.00
8049;BME280;20935;42.660;23.342;2023-03-08T03:47:30;94009.63;;;5.86;100.00
8049;BME280;20935;42.660;23.342;2023-03-08T03:50:16;93995.97;;;5.41;100.00
8049;BME280;20935;42.660;23.342;2023-03-08T03:53:01;94002.06;;;5.45;100.00
8049;BME280;20935;42.660;23.342;2023-03-08T03:55:47;94015.72;;;5.90;100.00
8049;BME280;20935;42.660;23.342;2023-03-08T03:58:32;93997.44;;;5.03;100.00
8049;BME280;20935;42.660;23.342;2023-03-08T04:01:19;94002.44;;;5.40;100.00
8049;BME280;20935;42.660;23.342;2023-03-08T04:04:07;94006.22;;;5.64;100.00
8049;BME280;20935;42.660;23.342;2023-03-08T04:06:53;94010.75;;;5.42;100.00
8049;BME280;20935;42.660;23.342;2023-03-08T04:09:38;94001.59;;;4.97;100.00
8049;BME280;20935;42.660;23.342;2023-03-08T04:12:24;94003.91;;;5.31;100.00
8049;BME280;20935;42.660;23.342;2023-03-08T04:15:10;94011.88;;;5.24;100.00
8049;BME280;20935;42.660;23.342;2023-03-08T04:17:55;94015.28;;;5.28;100.00
8049;BME280;20935;42.660;23.342;2023-03-08T04:20:43;94017.19;;;5.31;100.00
8049;BME280;20935;42.660;23.342;2023-03-08T04:23:28;94015.66;;;5.19;100.00
8049;BME280;20935;42.660;23.342;2023-03-08T04:26:15;94013.00;;;5.12;100.00
8049;BME280;20935;42.660;23.342;2023-03-08T04:29:00;94017.19;;;5.20;100.00
8049;BME280;20935;42.660;23.342;2023-03-08T04:31:49;94015.19;;;4.85;100.00
8049;BME280;20935;42.660;23.342;2023-03-08T04:34:34;94015.56;;;4.77;100.00
8049;BME280;20935;42.660;23.342;2023-03-08T04:37:21;94013.72;;;4.98;100.00
8049;BME280;20935;42.660;23.342;2023-03-08T04:40:08;94004.63;;;5.10;100.00
8049;BME280;20935;42.660;23.342;2023-03-08T04:42:54;94008.44;;;5.12;100.00
8049;BME280;20935;42.660;23.342;2023-03-08T04:45:39;94005.72;;;4.84;100.00
8049;BME280;20935;42.660;23.342;2023-03-08T04:48:24;94011.03;;;4.84;100.00
8049;BME280;20935;42.660;23.342;2023-03-08T04:51:11;94005.75;;;5.02;100.00
8049;BME280;20935;42.660;23.342;2023-03-08T04:53:58;94009.97;;;5.20;100.00
8049;BME280;20935;42.660;23.342;2023-03-08T04:56:43;94009.38;;;4.55;100.00
8049;BME280;20935;42.660;23.342;2023-03-08T04:59:29;94011.63;;;4.46;100.00
8049;BME280;20935;42.660;23.342;2023-03-08T05:02:14;94017.75;;;4.60;100.00
8049;BME280;20935;42.660;23.342;2023-03-08T05:04:59;94027.56;;;4.49;100.00
8049;BME280;20935;42.660;23.342;2023-03-08T05:07:45;94032.56;;;4.65;100.00
8049;BME280;20935;42.660;23.342;2023-03-08T05:10:32;94033.25;;;4.51;100.00
8049;BME280;20935;42.660;23.342;2023-03-08T05:13:17;94029.81;;;4.47;100.00
8049;BME280;20935;42.660;23.342;2023-03-08T05:16:05;94042.91;;;5.02;100.00
8049;BME280;20935;42.660;23.342;2023-03-08T05:18:51;94047.91;;;5.35;100.00
8049;BME280;20935;42.660;23.342;2023-03-08T05:21:36;94041.47;;;5.29;100.00
8049;BME280;20935;42.660;23.342;2023-03-08T05:24:22;94047.13;;;5.13;100.00
8049;BME280;20935;42.660;23.342;2023-03-08T05:27:09;94060.47;;;5.52;100.00
8049;BME280;20935;42.660;23.342;2023-03-08T05:29:54;94063.84;;;5.46;100.00
8049;BME280;20935;42.660;23.342;2023-03-08T05:32:39;94078.75;;;5.93;100.00
8049;BME280;20935;42.660;23.342;2023-03-08T05:35:25;94072.69;;;5.89;100.00
8049;BME280;20935;42.660;23.342;2023-03-08T05:38:10;94075.28;;;5.75;100.00
8049;BME280;20935;42.660;23.342;2023-03-08T05:40:59;94084.06;;;6.07;100.00
8049;BME280;20935;42.660;23.342;2023-03-08T05:43:47;94081.78;;;6.05;100.00
8049;BME280;20935;42.660;23.342;2023-03-08T05:46:32;94087.03;;;5.59;100.00
8049;BME280;20935;42.660;23.342;2023-03-08T05:49:18;94097.66;;;5.49;100.00
8049;BME280;20935;42.660;23.342;2023-03-08T05:52:04;94086.28;;;5.55;100.00
8049;BME280;20935;42.660;23.342;2023-03-08T05:54:49;94091.63;;;5.77;100.00
8049;BME280;20935;42.660;23.342;2023-03-08T05:57:35;94094.31;;;6.05;100.00
8049;BME280;20935;42.660;23.342;2023-03-08T06:00:22;94100.38;;;6.27;100.00
8049;BME280;20935;42.660;23.342;2023-03-08T06:03:08;94096.56;;;6.13;100.00
8049;BME280;20935;42.660;23.342;2023-03-08T06:05:53;94099.19;;;5.78;100.00
8049;BME280;20935;42.660;23.342;2023-03-08T06:08:39;94107.94;;;5.82;100.00
8049;BME280;20935;42.660;23.342;2023-03-08T06:11:25;94112.13;;;5.87;100.00
8049;BME280;20935;42.660;23.342;2023-03-08T06:14:10;94106.47;;;5.92;100.00
8049;BME280;20935;42.660;23.342;2023-03-08T06:16:57;94109.13;;;5.95;100.00
8049;BME280;20935;42.660;23.342;2023-03-08T06:19:42;94114.78;;;6.29;100.00
8049;BME280;20935;42.660;23.342;2023-03-08T06:22:28;94121.63;;;6.58;100.00
8049;BME280;20935;42.660;23.342;2023-03-08T06:25:13;94125.34;;;6.89;100.00
8049;BME280;20935;42.660;23.342;2023-03-08T06:27:59;94129.34;;;7.47;96.66
8049;BME280;20935;42.660;23.342;2023-03-08T06:30:45;94132.16;;;7.84;93.42
8049;BME280;20935;42.660;23.342;2023-03-08T06:33:34;94133.53;;;8.10;90.21
8049;BME280;20935;42.660;23.342;2023-03-08T06:36:20;94139.34;;;7.94;90.99
8049;BME280;20935;42.660;23.342;2023-03-08T06:39:06;94140.16;;;7.84;91.99
8049;BME280;20935;42.660;23.342;2023-03-08T06:41:53;94126.75;;;7.98;91.63
8049;BME280;20935;42.660;23.342;2023-03-08T06:44:38;94141.16;;;8.63;88.44
8049;BME280;20935;42.660;23.342;2023-03-08T06:47:24;94151.50;;;9.32;81.89
8049;BME280;20935;42.660;23.342;2023-03-08T06:50:13;94148.44;;;9.64;77.93
8049;BME280;20935;42.660;23.342;2023-03-08T06:52:58;94149.31;;;9.84;77.10
8049;BME280;20935;42.660;23.342;2023-03-08T06:55:44;94159.09;;;10.25;72.90
8049;BME280;20935;42.660;23.342;2023-03-08T06:58:30;94158.50;;;9.83;73.40
8049;BME280;20935;42.660;23.342;2023-03-08T07:01:16;94173.75;;;9.86;73.16
8049;BME280;20935;42.660;23.342;2023-03-08T07:04:02;94176.16;;;9.77;73.99
8049;BME280;20935;42.660;23.342;2023-03-08T07:06:49;94181.22;;;9.68;74.97
8049;BME280;20935;42.660;23.342;2023-03-08T07:09:34;94176.78;;;9.58;76.92
8049;BME280;20935;42.660;23.342;2023-03-08T07:12:20;94188.84;;;10.00;73.14
8049;BME280;20935;42.660;23.342;2023-03-08T07:15:06;94194.03;;;11.11;67.26
8049;BME280;20935;42.660;23.342;2023-03-08T07:17:54;94194.47;;;11.72;62.93
8049;BME280;20935;42.660;23.342;2023-03-08T07:20:39;94193.69;;;11.52;63.57
8049;BME280;20935;42.660;23.342;2023-03-08T07:23:27;94188.09;;;11.23;64.13
8049;BME280;20935;42.660;23.342;2023-03-08T07:26:12;94199.66;;;11.40;63.93
8049;BME280;20935;42.660;23.342;2023-03-08T07:28:58;94193.56;;;10.23;69.19
8049;BME280;20935;42.660;23.342;2023-03-08T07:31:43;94186.94;;;10.31;71.61
8049;BME280;20935;42.660;23.342;2023-03-08T07:34:29;94184.59;;;10.33;69.97
8049;BME280;20935;42.660;23.342;2023-03-08T07:37:15;94180.47;;;10.78;69.11
8049;BME280;20935;42.660;23.342;2023-03-08T07:40:02;94184.38;;;10.47;69.41
8049;BME280;20935;42.660;23.342;2023-03-08T07:42:48;94176.41;;;10.17;71.91
8049;BME280;20935;42.660;23.342;2023-03-08T07:45:34;94188.94;;;10.97;69.38
8049;BME280;20935;42.660;23.342;2023-03-08T07:48:19;94186.50;;;11.06;66.87
8049;BME280;20935;42.660;23.342;2023-03-08T07:51:06;94185.22;;;10.67;70.11
8049;BME280;20935;42.660;23.342;2023-03-08T07:53:53;94192.50;;;11.13;68.04
8049;BME280;20935;42.660;23.342;2023-03-08T07:56:40;94198.09;;;11.22;66.82
8049;BME280;20935;42.660;23.342;2023-03-08T07:59:25;94195.97;;;11.34;66.10
8049;BME280;20935;42.660;23.342;2023-03-08T08:02:11;94194.59;;;11.65;65.38
8049;BME280;20935;42.660;23.342;2023-03-08T08:04:57;94195.38;;;11.85;64.40
8049;BME280;20935;42.660;23.342;2023-03-08T08:07:45;94199.13;;;11.48;64.80
8049;BME280;20935;42.660;23.342;2023-03-08T08:10:30;94196.34;;;11.32;65.91
8049;BME280;20935;42.660;23.342;2023-03-08T08:13:18;94198.91;;;11.59;65.01
8049;BME280;20935;42.660;23.342;2023-03-08T08:16:03;94193.94;;;11.18;67.35
8049;BME280;20935;42.660;23.342;2023-03-08T08:18:50;94196.81;;;11.70;65.01
8049;BME280;20935;42.660;23.342;2023-03-08T08:21:39;94202.41;;;11.36;66.10
8049;BME280;20935;42.660;23.342;2023-03-08T08:24:24;94196.72;;;11.34;65.34
8049;BME280;20935;42.660;23.342;2023-03-08T08:27:09;94208.34;;;12.75;60.81
8049;BME280;20935;42.660;23.342;2023-03-08T08:29:56;94212.91;;;12.09;61.78
8049;BME280;20935;42.660;23.342;2023-03-08T08:32:42;94202.47;;;12.11;61.20
8049;BME280;20935;42.660;23.342;2023-03-08T08:35:27;94202.88;;;12.62;58.80
8049;BME280;20935;42.660;23.342;2023-03-08T08:38:13;94202.97;;;12.91;57.75
8049;BME280;20935;42.660;23.342;2023-03-08T08:40:59;94206.50;;;14.06;54.64
8049;BME280;20935;42.660;23.342;2023-03-08T08:43:45;94208.53;;;13.61;55.53
8049;BME280;20935;42.660;23.342;2023-03-08T08:46:32;94203.94;;;14.28;54.44
8049;BME280;20935;42.660;23.342;2023-03-08T08:49:18;94198.91;;;14.68;52.34
8049;BME280;20935;42.660;23.342;2023-03-08T08:52:06;94196.13;;;13.92;53.68
8049;BME280;20935;42.660;23.342;2023-03-08T08:54:52;94201.81;;;14.36;53.10
8049;BME280;20935;42.660;23.342;2023-03-08T08:57:37;94192.91;;;14.10;53.68
8049;BME280;20935;42.660;23.342;2023-03-08T09:00:23;94189.34;;;13.30;55.03
8049;BME280;20935;42.660;23.342;2023-03-08T09:03:10;94196.78;;;12.45;56.96
8049;BME280;20935;42.660;23.342;2023-03-08T09:05:57;94201.81;;;12.92;56.31
8049;BME280;20935;42.660;23.342;2023-03-08T09:08:43;94202.66;;;12.89;56.08
8049;BME280;20935;42.660;23.342;2023-03-08T09:11:29;94190.28;;;13.07;56.26
8049;BME280;20935;42.660;23.342;2023-03-08T09:14:14;94201.97;;;13.33;55.78
8049;BME280;20935;42.660;23.342;2023-03-08T09:17:00;94194.06;;;13.84;54.16
8049;BME280;20935;42.660;23.342;2023-03-08T09:19:47;94191.75;;;13.70;54.67
8049;BME280;20935;42.660;23.342;2023-03-08T09:22:33;94190.75;;;12.90;56.14
8049;BME280;20935;42.660;23.342;2023-03-08T09:25:18;94189.75;;;13.45;55.26
8049;BME280;20935;42.660;23.342;2023-03-08T09:28:07;94186.63;;;13.18;55.49
8049;BME280;20935;42.660;23.342;2023-03-08T09:30:53;94188.03;;;13.22;55.73
8049;BME280;20935;42.660;23.342;2023-03-08T09:33:39;94187.22;;;13.38;55.43
8049;BME280;20935;42.660;23.342;2023-03-08T09:36:26;94186.78;;;14.22;53.15
8049;BME280;20935;42.660;23.342;2023-03-08T09:39:13;94179.03;;;14.11;53.18
8049;BME280;20935;42.660;23.342;2023-03-08T09:41:59;94173.56;;;14.66;51.79
8049;BME280;20935;42.660;23.342;2023-03-08T09:45:00;94175.44;;;14.43;52.05
8049;BME280;20935;42.660;23.342;2023-03-08T09:47:53;94168.00;;;14.47;52.37
8049;BME280;20935;42.660;23.342;2023-03-08T09:50:44;94169.47;;;15.21;51.09
8049;BME280;20935;42.660;23.342;2023-03-08T09:53:37;94176.47;;;15.87;49.36
8049;BME280;20935;42.660;23.342;2023-03-08T09:56:28;94163.91;;;15.37;49.84
8049;BME280;20935;42.660;23.342;2023-03-08T09:59:20;94162.22;;;14.96;50.69
8049;BME280;20935;42.660;23.342;2023-03-08T10:02:19;94154.00;;;13.86;53.21
8049;BME280;20935;42.660;23.342;2023-03-08T10:05:13;94154.56;;;13.93;53.41
8049;BME280;20935;42.660;23.342;2023-03-08T10:08:05;94157.94;;;13.56;54.32
8049;BME280;20935;42.660;23.342;2023-03-08T10:10:57;94152.66;;;14.32;52.91
8049;BME280;20935;42.660;23.342;2023-03-08T10:13:47;94149.00;;;14.13;52.92
8049;BME280;20935;42.660;23.342;2023-03-08T10:16:36;94145.25;;;14.48;52.52
8049;BME280;20935;42.660;23.342;2023-03-08T10:19:27;94149.31;;;14.66;51.43
8049;BME280;20935;42.660;23.342;2023-03-08T10:22:21;94148.66;;;14.62;51.70
8049;BME280;20935;42.660;23.342;2023-03-08T10:25:19;94141.56;;;14.55;52.19
8049;BME280;20935;42.660;23.342;2023-03-08T10:28:11;94146.34;;;14.98;51.09
8049;BME280;20935;42.660;23.342;2023-03-08T10:30:59;94137.25;;;15.39;49.90
8049;BME280;20935;42.660;23.342;2023-03-08T10:33:45;94137.94;;;14.36;51.90
8049;BME280;20935;42.660;23.342;2023-03-08T10:36:31;94144.09;;;15.31;49.89
8049;BME280;20935;42.660;23.342;2023-03-08T10:39:18;94138.25;;;15.32;49.74
8049;BME280;20935;42.660;23.342;2023-03-08T10:42:12;94138.97;;;14.64;51.32
8049;BME280;20935;42.660;23.342;2023-03-08T10:45:02;94136.56;;;14.79;50.85
8049;BME280;20935;42.660;23.342;2023-03-08T10:47:53;94131.97;;;15.35;49.82
8049;BME280;20935;42.660;23.342;2023-03-08T10:50:39;94121.13;;;14.92;50.54
8049;BME280;20935;42.660;23.342;2023-03-08T10:53:24;94109.22;;;14.68;50.94
8049;BME280;20935;42.660;23.342;2023-03-08T10:56:22;94119.47;;;15.07;50.35
8049;BME280;20935;42.660;23.342;2023-03-08T10:59:18;94107.25;;;14.81;50.72
8049;BME280;20935;42.660;23.342;2023-03-08T11:02:18;94103.69;;;14.71;50.50
8049;BME280;20935;42.660;23.342;2023-03-08T11:05:17;94109.34;;;14.98;50.21
8049;BME280;20935;42.660;23.342;2023-03-08T11:08:03;94109.91;;;15.49;49.17
8049;BME280;20935;42.660;23.342;2023-03-08T11:10:59;94100.09;;;14.87;50.07
8049;BME280;20935;42.660;23.342;2023-03-08T11:13:46;94095.28;;;15.60;48.77
8049;BME280;20935;42.660;23.342;2023-03-08T11:16:46;94087.06;;;15.63;48.65
8049;BME280;20935;42.660;23.342;2023-03-08T11:19:43;94094.69;;;15.65;47.78
8049;BME280;20935;42.660;23.342;2023-03-08T11:22:40;94085.19;;;15.82;48.13
8049;BME280;20935;42.660;23.342;2023-03-08T11:25:34;94075.59;;;15.81;47.77
8049;BME280;20935;42.660;23.342;2023-03-08T11:28:43;94061.84;;;16.37;46.91
8049;BME280;20935;42.660;23.342;2023-03-08T11:31:35;94059.78;;;15.05;48.97
8049;BME280;20935;42.660;23.342;2023-03-08T11:34:33;94047.69;;;14.88;49.26
8049;BME280;20935;42.660;23.342;2023-03-08T11:37:30;94059.72;;;15.52;48.47
8049;BME280;20935;42.660;23.342;2023-03-08T11:40:23;94034.88;;;15.01;49.30
8049;BME280;20935;42.660;23.342;2023-03-08T11:43:20;94046.50;;;15.11;49.44
8049;BME280;20935;42.660;23.342;2023-03-08T11:46:19;94045.00;;;15.53;48.62
8049;BME280;20935;42.660;23.342;2023-03-08T11:49:26;94035.66;;;15.23;48.66
8049;BME280;20935;42.660;23.342;2023-03-08T11:52:21;94036.78;;;14.91;47.21
8049;BME280;20935;42.660;23.342;2023-03-08T11:55:27;94033.81;;;14.77;46.93
8049;BME280;20935;42.660;23.342;2023-03-08T11:58:19;94023.72;;;14.90;46.15
8049;BME280;20935;42.660;23.342;2023-03-08T12:01:12;94026.41;;;15.33;45.46
8049;BME280;20935;42.660;23.342;2023-03-08T12:04:06;94014.88;;;15.33;44.16
8049;BME280;20935;42.660;23.342;2023-03-08T12:06:53;94007.59;;;15.73;43.23
8049;BME280;20935;42.660;23.342;2023-03-08T12:09:44;94010.00;;;15.71;43.39
8049;BME280;20935;42.660;23.342;2023-03-08T12:12:38;94011.75;;;15.65;43.55
8049;BME280;20935;42.660;23.342;2023-03-08T12:15:28;94000.97;;;15.13;44.61
8049;BME280;20935;42.660;23.342;2023-03-08T12:18:21;94006.53;;;15.18;44.57
8049;BME280;20935;42.660;23.342;2023-03-08T12:21:13;94003.06;;;15.39;44.28
8049;BME280;20935;42.660;23.342;2023-03-08T12:24:14;94005.59;;;15.34;44.11
8049;BME280;20935;42.660;23.342;2023-03-08T12:27:05;94000.81;;;15.60;43.80
8049;BME280;20935;42.660;23.342;2023-03-08T12:29:59;94000.75;;;15.50;43.82
8049;BME280;20935;42.660;23.342;2023-03-08T12:32:47;93992.78;;;15.78;43.84
8049;BME280;20935;42.660;23.342;2023-03-08T12:35:35;93989.53;;;16.01;43.35
8049;BME280;20935;42.660;23.342;2023-03-08T12:38:31;94003.38;;;16.03;43.72
8049;BME280;20935;42.660;23.342;2023-03-08T12:41:21;93998.03;;;15.81;43.83
8049;BME280;20935;42.660;23.342;2023-03-08T12:44:22;93995.19;;;15.85;43.53
8049;BME280;20935;42.660;23.342;2023-03-08T12:47:20;93991.09;;;15.71;44.07
8049;BME280;20935;42.660;23.342;2023-03-08T12:50:09;93985.94;;;15.95;43.57
8049;BME280;20935;42.660;23.342;2023-03-08T12:52:59;93980.78;;;16.28;42.48
8049;BME280;20935;42.660;23.342;2023-03-08T12:55:45;93983.69;;;15.93;42.29
8049;BME280;20935;42.660;23.342;2023-03-08T12:58:49;93989.59;;;16.28;42.29
8049;BME280;20935;42.660;23.342;2023-03-08T13:01:37;93986.38;;;16.70;41.93
8049;BME280;20935;42.660;23.342;2023-03-08T13:04:28;93980.00;;;16.36;42.26
8049;BME280;20935;42.660;23.342;2023-03-08T13:07:24;93982.28;;;16.56;42.38
8049;BME280;20935;42.660;23.342;2023-03-08T13:10:19;93987.13;;;16.79;42.17
8049;BME280;20935;42.660;23.342;2023-03-08T13:13:23;93966.41;;;16.67;42.46
8049;BME280;20935;42.660;23.342;2023-03-08T13:16:32;93974.91;;;16.38;42.58
8049;BME280;20935;42.660;23.342;2023-03-08T13:19:24;93969.69;;;15.86;43.47
8049;BME280;20935;42.660;23.342;2023-03-08T13:22:15;93974.94;;;15.80;43.63
8049;BME280;20935;42.660;23.342;2023-03-08T13:25:07;93980.13;;;16.15;43.12
8049;BME280;20935;42.660;23.342;2023-03-08T13:27:59;93967.81;;;15.56;44.00
8049;BME280;20935;42.660;23.342;2023-03-08T13:30:49;93968.28;;;15.32;44.59
8049;BME280;20935;42.660;23.342;2023-03-08T13:33:38;93975.34;;;15.39;44.31
8049;BME280;20935;42.660;23.342;2023-03-08T13:36:26;93975.06;;;15.46;44.30
8049;BME280;20935;42.660;23.342;2023-03-08T13:39:17;93975.38;;;15.48;44.37
8049;BME280;20935;42.660;23.342;2023-03-08T13:42:08;93966.81;;;15.40;44.23
8049;BME280;20935;42.660;23.342;2023-03-08T13:45:07;93975.59;;;15.32;44.37
8049;BME280;20935;42.660;23.342;2023-03-08T13:47:54;93974.66;;;15.26;44.52
8049;BME280;20935;42.660;23.342;2023-03-08T13:50:43;93968.28;;;15.41;44.33
8049;BME280;20935;42.660;23.342;2023-03-08T13:53:31;93973.78;;;15.90;43.01
8049;BME280;20935;42.660;23.342;2023-03-08T13:56:22;93968.22;;;15.94;43.09
8049;BME280;20935;42.660;23.342;2023-03-08T13:59:16;93960.19;;;16.12;42.79
8049;BME280;20935;42.660;23.342;2023-03-08T14:02:17;93958.84;;;16.26;42.48
8049;BME280;20935;42.660;23.342;2023-03-08T14:05:15;93961.25;;;16.51;42.06
8049;BME280;20935;42.660;23.342;2023-03-08T14:08:03;93960.94;;;16.22;42.32
8049;BME280;20935;42.660;23.342;2023-03-08T14:10:51;93957.13;;;15.92;43.14
8049;BME280;20935;42.660;23.342;2023-03-08T14:13:39;93967.56;;;15.81;43.40
8049;BME280;20935;42.660;23.342;2023-03-08T14:16:29;93965.03;;;15.77;43.58
8049;BME280;20935;42.660;23.342;2023-03-08T14:19:23;93956.16;;;15.77;43.87
8049;BME280;20935;42.660;23.342;2023-03-08T14:22:11;93958.75;;;15.80;43.32
8049;BME280;20935;42.660;23.342;2023-03-08T14:24:59;93955.34;;;15.98;43.20
8049;BME280;20935;42.660;23.342;2023-03-08T14:27:46;93957.47;;;16.12;42.88
8049;BME280;20935;42.660;23.342;2023-03-08T14:30:32;93961.09;;;16.36;42.64
8049;BME280;20935;42.660;23.342;2023-03-08T14:33:19;93966.50;;;16.36;42.30
8049;BME280;20935;42.660;23.342;2023-03-08T14:36:05;93954.78;;;16.21;42.43
8049;BME280;20935;42.660;23.342;2023-03-08T14:38:54;93951.63;;;16.23;42.27
8049;BME280;20935;42.660;23.342;2023-03-08T14:41:40;93946.78;;;16.00;42.07
8049;BME280;20935;42.660;23.342;2023-03-08T14:44:27;93959.31;;;15.75;42.47
8049;BME280;20935;42.660;23.342;2023-03-08T14:47:21;93961.69;;;15.64;42.59
8049;BME280;20935;42.660;23.342;2023-03-08T14:50:18;93963.81;;;15.78;42.41
8049;BME280;20935;42.660;23.342;2023-03-08T14:53:23;93964.31;;;15.86;41.46
8049;BME280;20935;42.660;23.342;2023-03-08T14:56:12;93962.06;;;15.93;41.38